Time;durP1;ratioP1;P1;durP2;ratioP2;P2;SDS_P1;SDS_P2;PMS_P1;PMS_P2;Temp;Humidity;BMP_temperature;BMP_pressure;BME280_temperature;BME280_humidity;BME280_pressure;Samples;Min_cycle;Max_cycle;Signal;HPM_P1;HPM_P2
2023/10/19 00:01:11;;;;;;;0.30;0.20;;;;;;;12.13;100.00;98457.00;4996682;28;20500;-48
2023/10/19 00:03:38;;;;;;;0.30;0.20;;;;;;;12.22;100.00;98448.44;4996517;28;20484;-48
2023/10/19 00:06:05;;;;;;;0.30;0.20;;;;;;;12.17;100.00;98450.53;4989463;28;20492;-49
2023/10/19 00:08:41;;;;;;;0.30;0.20;;;;;;;12.23;100.00;98441.28;4996501;28;20464;-48
2023/10/19 00:11:09;;;;;;;0.30;0.20;;;;;;;12.25;100.00;98440.25;4996496;28;20599;-48
2023/10/19 00:13:37;;;;;;;0.30;0.20;;;;;;;12.30;100.00;98446.09;4996017;28;20554;-49
2023/10/19 00:16:16;;;;;;;0.30;0.20;;;;;;;12.32;100.00;98441.53;4996467;28;20449;-48
2023/10/19 00:18:44;;;;;;;0.30;0.20;;;;;;;12.32;100.00;98436.19;4985060;28;20445;-48
2023/10/19 00:21:20;;;;;;;0.30;0.20;;;;;;;12.35;100.00;98435.16;4996092;28;20453;-48
2023/10/19 00:23:47;;;;;;;0.30;0.20;;;;;;;12.25;100.00;98428.72;4996237;28;20551;-48
2023/10/19 00:26:17;;;;;;;0.30;0.20;;;;;;;12.29;100.00;98433.75;4995829;28;20596;-48
2023/10/19 00:28:45;;;;;;;0.30;0.20;;;;;;;12.23;100.00;98431.50;4996277;28;20453;-48
2023/10/19 00:31:13;;;;;;;0.30;0.20;;;;;;;12.28;100.00;98429.38;4996242;28;20523;-48
2023/10/19 00:33:40;;;;;;;0.30;0.20;;;;;;;12.31;100.00;98426.50;4996349;28;20481;-48
2023/10/19 00:36:08;;;;;;;0.30;0.20;;;;;;;12.26;100.00;98425.09;4995886;28;20449;-48
2023/10/19 00:41:07;;;;;;;0.30;0.20;;;;;;;12.43;100.00;98423.03;4996000;28;20461;-48
2023/10/19 00:43:42;;;;;;;0.30;0.20;;;;;;;12.34;100.00;98422.81;4995580;28;20473;-49
2023/10/19 00:46:15;;;;;;;0.30;0.20;;;;;;;12.34;100.00;98421.00;4983573;28;20990;-48
2023/10/19 00:48:47;;;;;;;0.30;0.20;;;;;;;12.34;100.00;98421.00;4995820;28;20450;-48
2023/10/19 00:54:10;;;;;;;0.30;0.20;;;;;;;12.43;100.00;98411.53;4985377;28;20449;-48
2023/10/19 00:56:41;;;;;;;2.13;2.03;;;;;;;12.60;100.00;98418.38;4978348;28;20449;-48
2023/10/19 00:59:14;;;;;;;0.30;0.20;;;;;;;12.63;100.00;98413.72;4984162;28;20993;-48
2023/10/19 01:01:45;;;;;;;0.30;0.20;;;;;;;12.72;100.00;98414.91;4995472;28;20488;-48
2023/10/19 01:04:20;;;;;;;0.30;0.20;;;;;;;12.74;100.00;98407.66;4992753;28;20578;-48
2023/10/19 01:07:07;;;;;;;0.40;0.30;;;;;;;12.66;100.00;98410.84;4992719;28;20503;-49
2023/10/19 01:09:38;;;;;;;0.30;0.20;;;;;;;12.67;100.00;98407.22;4995547;28;20811;-49
2023/10/19 01:17:43;;;;;;;0.30;0.20;;;;;;;12.63;100.00;98408.41;4995981;28;20445;-48
2023/10/19 01:23:42;;;;;;;0.30;0.20;;;;;;;12.66;100.00;98381.53;4995267;28;20465;-48
2023/10/19 01:31:14;;;;;;;0.30;0.20;;;;;;;12.50;100.00;98391.50;4995124;28;20445;-49
2023/10/19 01:33:41;;;;;;;0.30;0.20;;;;;;;12.63;100.00;98380.88;4995012;28;20466;-48
2023/10/19 01:36:11;;;;;;;0.30;0.20;;;;;;;12.68;100.00;98384.94;4994689;28;20943;-48
2023/10/19 01:38:39;;;;;;;0.30;0.20;;;;;;;12.58;100.00;98381.19;4994762;28;21029;-48
2023/10/19 01:41:18;;;;;;;0.30;0.20;;;;;;;12.60;100.00;98376.59;4994606;28;20460;-47
2023/10/19 01:43:48;;;;;;;0.30;0.20;;;;;;;12.63;100.00;98379.06;4994407;28;20453;-48
2023/10/19 01:46:21;;;;;;;0.30;0.20;;;;;;;12.63;100.00;98384.41;4994684;28;20608;-48
2023/10/19 01:48:54;;;;;;;0.30;0.20;;;;;;;12.62;100.00;98384.50;4994842;28;20802;-48
2023/10/19 01:51:26;;;;;;;0.30;0.20;;;;;;;12.66;100.00;98381.53;4994677;28;20553;-48
2023/10/19 01:53:55;;;;;;;0.30;0.20;;;;;;;12.66;100.00;98386.00;4994599;28;20449;-49
2023/10/19 01:56:22;;;;;;;0.30;0.20;;;;;;;12.65;100.00;98382.47;4994686;28;20454;-49
2023/10/19 01:58:51;;;;;;;0.30;0.20;;;;;;;12.64;100.00;98375.44;4993694;28;20449;-48
2023/10/19 02:04:05;;;;;;;0.30;0.20;;;;;;;12.64;100.00;98375.44;4980471;28;20485;-48
2023/10/19 02:09:17;;;;;;;0.30;0.20;;;;;;;12.61;100.00;98365.00;4994308;28;20955;-49
2023/10/19 02:11:46;;;;;;;0.30;0.20;;;;;;;12.48;100.00;98365.94;4994252;28;20504;-48
2023/10/19 02:14:14;;;;;;;0.30;0.20;;;;;;;12.52;100.00;98370.09;4994281;28;20497;-49
2023/10/19 02:16:47;;;;;;;0.30;0.20;;;;;;;12.50;100.00;98359.53;4994033;28;20962;-48
2023/10/19 02:19:14;;;;;;;0.30;0.20;;;;;;;12.30;100.00;98358.19;4994091;28;20450;-48
2023/10/19 02:21:41;;;;;;;0.30;0.20;;;;;;;12.39;100.00;98352.25;4993928;28;20477;-48
2023/10/19 02:24:09;;;;;;;0.30;0.20;;;;;;;12.44;100.00;98350.13;4994025;28;20508;-49
2023/10/19 02:26:37;;;;;;;0.30;0.20;;;;;;;12.50;100.00;98342.69;4993810;28;20493;-49
2023/10/19 02:29:07;;;;;;;0.30;0.20;;;;;;;12.53;100.00;98343.34;4993715;28;20547;-48
2023/10/19 02:31:37;;;;;;;0.30;0.20;;;;;;;12.49;100.00;98343.66;4981088;28;20556;-48
2023/10/19 02:34:04;;;;;;;0.30;0.20;;;;;;;12.53;100.00;98340.66;4993695;28;20445;-48
2023/10/19 02:36:32;;;;;;;0.30;0.20;;;;;;;12.59;100.00;98342.91;4993720;28;20942;-48
2023/10/19 02:39:00;;;;;;;1.80;1.70;;;;;;;12.58;100.00;98340.34;4993796;28;20457;-48
2023/10/19 02:41:28;;;;;;;0.30;0.20;;;;;;;12.63;100.00;98344.41;4993644;28;20488;-49
2023/10/19 02:44:09;;;;;;;0.30;0.20;;;;;;;12.57;100.00;98347.50;4976097;28;20453;-48
2023/10/19 02:46:41;;;;;;;0.30;0.20;;;;;;;12.56;100.00;98350.25;4992553;28;20496;-49
2023/10/19 02:49:14;;;;;;;0.30;0.20;;;;;;;12.55;100.00;98346.75;4984920;28;20481;-48
2023/10/19 02:51:45;;;;;;;0.40;0.30;;;;;;;12.54;100.00;98339.72;4993440;28;20477;-48
2023/10/19 02:54:29;;;;;;;0.30;0.20;;;;;;;12.59;100.00;98339.38;4993226;28;20481;-48
2023/10/19 02:56:59;;;;;;;0.63;0.63;;;;;;;12.59;100.00;98340.25;4993160;28;20812;-49
2023/10/19 02:59:31;;;;;;;0.30;0.20;;;;;;;12.60;100.00;98341.94;4992583;28;20956;-48
2023/10/19 03:02:18;;;;;;;0.30;0.20;;;;;;;12.61;100.00;98337.47;4993088;28;21053;-48
2023/10/19 03:04:45;;;;;;;0.40;0.30;;;;;;;12.61;100.00;98334.81;4985978;28;20505;-49
2023/10/19 03:07:13;;;;;;;0.30;0.20;;;;;;;12.64;100.00;98322.13;4993092;28;20958;-49
2023/10/19 03:09:48;;;;;;;0.30;0.20;;;;;;;12.59;100.00;98337.56;4993253;28;20537;-50
2023/10/19 03:12:17;;;;;;;0.30;0.20;;;;;;;12.64;100.00;98338.13;4993162;28;20842;-48
2023/10/19 03:14:43;;;;;;;0.30;0.20;;;;;;;12.60;100.00;98333.09;4992974;28;20870;-48
2023/10/19 03:17:10;;;;;;;0.30;0.20;;;;;;;12.60;100.00;98338.44;4992250;28;20452;-48
2023/10/19 03:19:36;;;;;;;0.30;0.20;;;;;;;12.56;100.00;98336.94;4992981;28;20449;-48
2023/10/19 03:22:05;;;;;;;0.30;0.20;;;;;;;12.50;100.00;98334.69;4993023;28;20474;-50
2023/10/19 03:24:35;;;;;;;0.30;0.20;;;;;;;12.56;100.00;98336.94;4992905;28;20552;-49
2023/10/19 03:27:15;;;;;;;0.30;0.20;;;;;;;12.58;100.00;98325.19;4992930;28;20556;-49
2023/10/19 03:29:46;;;;;;;0.30;0.20;;;;;;;12.54;100.00;98315.72;4993153;28;20449;-49
2023/10/19 03:32:14;;;;;;;0.30;0.20;;;;;;;12.48;100.00;98301.97;4993041;28;20469;-49
2023/10/19 03:34:46;;;;;;;0.30;0.20;;;;;;;12.50;100.00;98292.06;4992294;28;20449;-51
2023/10/19 03:37:14;;;;;;;0.30;0.20;;;;;;;12.59;100.00;98291.41;4992970;28;20477;-50
2023/10/19 03:39:41;;;;;;;0.30;0.20;;;;;;;12.54;100.00;98281.06;4992890;28;20951;-51
2023/10/19 03:42:08;;;;;;;0.30;0.20;;;;;;;12.60;100.00;98282.44;4992802;28;20520;-48
2023/10/19 03:44:53;;;;;;;0.30;0.20;;;;;;;12.60;100.00;98274.47;4993078;28;20533;-48
2023/10/19 03:47:25;;;;;;;0.30;0.20;;;;;;;12.57;100.00;98272.00;4992715;28;20499;-48
2023/10/19 03:49:52;;;;;;;0.30;0.20;;;;;;;12.51;100.00;98281.28;4992850;28;20457;-48
2023/10/19 03:54:46;;;;;;;0.30;0.20;;;;;;;12.45;100.00;98282.56;4992925;28;20457;-48
2023/10/19 03:57:19;;;;;;;0.50;0.50;;;;;;;12.32;100.00;98279.00;4992521;28;20961;-48
2023/10/19 03:59:49;;;;;;;0.30;0.20;;;;;;;12.41;100.00;98278.41;4992116;28;20442;-48
2023/10/19 04:02:16;;;;;;;0.30;0.20;;;;;;;12.48;100.00;98276.19;4979899;28;20480;-48
2023/10/19 04:04:43;;;;;;;0.30;0.20;;;;;;;12.31;100.00;98273.78;4992344;28;20967;-48
2023/10/19 04:07:16;;;;;;;0.30;0.20;;;;;;;12.17;100.00;98264.06;4992365;28;20489;-48
2023/10/19 04:12:31;;;;;;;0.30;0.20;;;;;;;12.34;100.00;98266.47;4992534;28;20913;-48
2023/10/19 04:18:00;;;;;;;0.30;0.20;;;;;;;12.46;100.00;98262.09;4952839;28;20960;-48
2023/10/19 04:22:57;;;;;;;0.30;0.20;;;;;;;12.55;100.00;98266.78;4992233;28;20473;-48
2023/10/19 04:25:27;;;;;;;0.30;0.20;;;;;;;12.53;100.00;98271.38;4992620;28;20460;-48
2023/10/19 04:27:53;;;;;;;0.30;0.20;;;;;;;12.56;100.00;98263.16;4993991;28;20496;-49
2023/10/19 04:30:22;;;;;;;0.30;0.20;;;;;;;12.43;100.00;98260.50;4996241;28;20481;-48
2023/10/19 04:32:50;;;;;;;0.30;0.20;;;;;;;12.22;100.00;98256.66;4995873;28;20477;-48
2023/10/19 04:35:24;;;;;;;0.30;0.20;;;;;;;12.27;100.00;98246.53;4995902;28;21025;-48
2023/10/19 04:37:52;;;;;;;0.30;0.20;;;;;;;12.33;100.00;98255.88;4995639;28;20998;-48
2023/10/19 04:40:19;;;;;;;0.30;0.20;;;;;;;12.45;100.00;98253.25;4995592;28;20449;-48
2023/10/19 04:42:47;;;;;;;0.30;0.20;;;;;;;12.52;100.00;98251.03;4995105;28;20473;-48
2023/10/19 04:45:14;;;;;;;0.30;0.20;;;;;;;12.56;100.00;98249.00;4995437;28;21034;-50
2023/10/19 04:47:41;;;;;;;0.30;0.20;;;;;;;12.57;100.00;98245.34;4995592;28;20507;-48
2023/10/19 04:50:10;;;;;;;0.30;0.20;;;;;;;12.55;100.00;98256.13;4995467;28;20452;-48
2023/10/19 04:52:37;;;;;;;0.30;0.20;;;;;;;12.29;100.00;98249.06;4995399;28;20485;-48
2023/10/19 04:55:04;;;;;;;0.30;0.20;;;;;;;12.41;100.00;98261.56;4995169;28;20523;-48
2023/10/19 04:57:31;;;;;;;0.30;0.20;;;;;;;12.48;100.00;98246.88;4995639;28;20484;-48
2023/10/19 04:59:57;;;;;;;0.30;0.20;;;;;;;12.54;100.00;98253.56;4994837;28;20446;-48
2023/10/19 05:02:24;;;;;;;0.30;0.20;;;;;;;12.66;100.00;98258.91;4995252;28;20853;-48
2023/10/19 05:04:51;;;;;;;0.30;0.20;;;;;;;12.54;100.00;98254.44;4988159;28;20819;-49
2023/10/19 05:07:17;;;;;;;0.30;0.20;;;;;;;12.61;100.00;98255.72;4995043;28;20500;-48
2023/10/19 05:09:44;;;;;;;0.30;0.20;;;;;;;12.84;100.00;98251.41;4995191;28;20548;-48
2023/10/19 05:12:14;;;;;;;0.30;0.20;;;;;;;12.66;100.00;98252.72;4994984;28;20470;-49
2023/10/19 05:14:41;;;;;;;1.27;1.17;;;;;;;12.67;100.00;98252.63;4994923;28;21021;-49
2023/10/19 05:17:12;;;;;;;0.30;0.20;;;;;;;12.93;100.00;98265.94;4995394;28;20457;-48
2023/10/19 05:19:39;;;;;;;0.30;0.20;;;;;;;12.66;100.00;98266.91;4994921;28;20450;-48
2023/10/19 05:22:08;;;;;;;0.30;0.20;;;;;;;12.57;100.00;98256.88;4994823;28;20505;-48
2023/10/19 05:24:35;;;;;;;0.30;0.20;;;;;;;12.51;100.00;98253.78;4995002;28;20453;-49
2023/10/19 05:27:02;;;;;;;0.30;0.20;;;;;;;12.61;100.00;98255.72;4994993;28;21002;-48
2023/10/19 05:29:31;;;;;;;0.30;0.20;;;;;;;12.57;100.00;98250.69;4994909;28;20477;-50
2023/10/19 05:31:58;;;;;;;0.30;0.20;;;;;;;12.51;100.00;98251.13;4994729;28;20809;-48
2023/10/19 05:34:26;;;;;;;0.30;0.20;;;;;;;12.62;100.00;98253.91;4994277;28;20458;-50
2023/10/19 05:36:54;;;;;;;0.30;0.20;;;;;;;12.62;100.00;98253.91;4995030;28;20461;-49
2023/10/19 05:39:20;;;;;;;0.40;0.20;;;;;;;12.68;100.00;98249.00;4993824;28;20544;-49
2023/10/19 05:41:47;;;;;;;0.40;0.40;;;;;;;12.72;100.00;98242.47;4994594;28;20477;-48
2023/10/19 05:44:13;;;;;;;0.30;0.20;;;;;;;12.75;100.00;98241.44;4994355;28;20544;-49
2023/10/19 05:46:40;;;;;;;0.30;0.20;;;;;;;12.81;100.00;98248.13;4994527;28;20524;-48
2023/10/19 05:49:07;;;;;;;0.30;0.20;;;;;;;12.82;100.00;98241.84;4994341;28;20454;-49
2023/10/19 05:51:34;;;;;;;0.37;0.30;;;;;;;12.98;100.00;98248.63;4994590;28;20469;-49
2023/10/19 05:54:03;;;;;;;0.30;0.20;;;;;;;12.94;100.00;98247.16;4994504;28;20457;-49
2023/10/19 05:56:30;;;;;;;0.30;0.20;;;;;;;12.94;100.00;98243.63;4994346;28;20445;-48
2023/10/19 05:58:57;;;;;;;0.30;0.20;;;;;;;12.93;100.00;98245.44;4993631;28;20532;-48
2023/10/19 06:01:24;;;;;;;0.30;0.20;;;;;;;12.96;100.00;98239.03;4994149;28;20454;-48
2023/10/19 06:03:51;;;;;;;1.50;1.40;;;;;;;12.79;100.00;98234.91;4993844;28;20453;-51
2023/10/19 06:06:19;;;;;;;0.30;0.20;;;;;;;12.97;100.00;98259.41;4987458;28;20449;-48
2023/10/19 06:08:46;;;;;;;0.30;0.20;;;;;;;12.75;100.00;98246.75;4993990;28;20465;-48
2023/10/19 06:11:13;;;;;;;0.30;0.20;;;;;;;12.87;100.00;98256.53;4994180;28;20529;-48
2023/10/19 06:13:39;;;;;;;0.30;0.20;;;;;;;13.19;100.00;98269.44;4993767;28;20916;-48
2023/10/19 06:16:06;;;;;;;0.30;0.20;;;;;;;13.08;100.00;98256.84;4993754;28;20951;-49
2023/10/19 06:18:33;;;;;;;0.30;0.20;;;;;;;12.98;100.00;98275.31;4993837;28;20450;-48
2023/10/19 06:20:59;;;;;;;0.33;0.23;;;;;;;13.10;100.00;98268.25;4993819;28;20457;-48
2023/10/19 06:23:26;;;;;;;0.30;0.20;;;;;;;13.07;100.00;98260.47;4993793;28;20560;-50
2023/10/19 06:25:52;;;;;;;0.30;0.20;;;;;;;13.19;100.00;98261.44;4993759;28;20454;-48
2023/10/19 06:28:19;;;;;;;0.30;0.20;;;;;;;13.13;100.00;98260.03;4976388;28;20559;-48
2023/10/19 06:30:48;;;;;;;0.30;0.20;;;;;;;12.99;100.00;98263.66;4993337;28;20490;-48
2023/10/19 06:33:14;;;;;;;0.30;0.20;;;;;;;13.01;100.00;98276.88;4993796;28;20480;-48
2023/10/19 06:35:41;;;;;;;0.30;0.20;;;;;;;13.02;100.00;98267.97;4993440;28;20838;-49
2023/10/19 06:38:09;;;;;;;0.30;0.20;;;;;;;13.03;100.00;98259.00;4993807;28;20451;-48
2023/10/19 06:40:38;;;;;;;0.40;0.20;;;;;;;13.09;100.00;98263.88;4993397;28;20446;-48
2023/10/19 06:43:07;;;;;;;0.30;0.20;;;;;;;13.01;100.00;98264.41;4993208;28;20481;-48
2023/10/19 06:45:34;;;;;;;0.30;0.20;;;;;;;13.19;100.00;98261.44;4993489;28;20453;-49
2023/10/19 06:48:00;;;;;;;0.30;0.20;;;;;;;13.16;100.00;98258.97;4993566;28;20501;-48
2023/10/19 06:50:27;;;;;;;0.30;0.20;;;;;;;13.21;100.00;98257.69;4993086;28;20449;-48
2023/10/19 06:52:54;;;;;;;0.30;0.20;;;;;;;13.24;100.00;98264.63;4993468;28;20473;-49
2023/10/19 06:55:22;;;;;;;0.30;0.20;;;;;;;13.14;100.00;98266.19;4993490;28;20527;-49
2023/10/19 06:57:51;;;;;;;0.30;0.20;;;;;;;13.14;100.00;98266.19;4993252;28;20457;-49
2023/10/19 07:00:19;;;;;;;0.30;0.20;;;;;;;13.18;100.00;98263.25;4992579;28;20453;-48
2023/10/19 07:02:47;;;;;;;0.30;0.20;;;;;;;13.24;100.00;98265.47;4993134;28;20565;-48
2023/10/19 07:05:18;;;;;;;0.30;0.20;;;;;;;13.20;100.00;98263.16;4986286;28;20913;-48
2023/10/19 07:07:45;;;;;;;0.30;0.20;;;;;;;13.18;100.00;98257.94;4993137;28;20583;-50
2023/10/19 07:10:13;;;;;;;0.30;0.20;;;;;;;13.18;100.00;98249.91;4992942;28;20449;-49
2023/10/19 07:12:46;;;;;;;0.30;0.20;;;;;;;13.23;100.00;98242.44;4993175;28;20477;-48
2023/10/19 07:15:18;;;;;;;0.30;0.20;;;;;;;13.23;100.00;98244.25;4993164;28;20540;-48
2023/10/19 07:17:46;;;;;;;0.30;0.20;;;;;;;13.26;100.00;98252.88;4992992;28;20477;-49
2023/10/19 07:23:18;;;;;;;0.30;0.20;;;;;;;13.41;100.00;98258.91;4992572;28;20469;-49
2023/10/19 07:25:47;;;;;;;0.30;0.20;;;;;;;13.37;100.00;98260.09;4993077;28;20483;-48
2023/10/19 07:28:15;;;;;;;0.30;0.20;;;;;;;13.43;100.00;98265.00;4992712;28;20492;-49
2023/10/19 07:30:43;;;;;;;0.30;0.20;;;;;;;13.45;100.00;98265.75;4992881;28;20453;-49
2023/10/19 07:33:16;;;;;;;0.30;0.20;;;;;;;13.49;100.00;98263.69;4979638;28;20568;-48
2023/10/19 07:35:46;;;;;;;0.30;0.20;;;;;;;13.54;100.00;98265.06;4991753;28;20830;-48
2023/10/19 07:38:13;;;;;;;0.30;0.20;;;;;;;13.62;100.00;98246.66;4993004;28;20458;-48
2023/10/19 07:40:40;;;;;;;0.30;0.20;;;;;;;13.77;100.00;98247.34;4992665;28;20951;-49
2023/10/19 07:43:08;;;;;;;0.30;0.20;;;;;;;13.63;100.00;98245.72;4992516;28;20528;-48
2023/10/19 07:45:36;;;;;;;0.30;0.20;;;;;;;13.85;100.00;98254.81;4992772;28;20516;-49
2023/10/19 07:48:06;;;;;;;0.30;0.20;;;;;;;13.99;100.00;98240.41;4992773;28;20493;-49
2023/10/19 07:50:40;;;;;;;0.30;0.20;;;;;;;13.83;100.00;98254.88;4992703;28;20456;-49
2023/10/19 07:53:07;;;;;;;0.30;0.20;;;;;;;13.69;100.00;98252.41;4992731;28;20597;-48
2023/10/19 07:55:33;;;;;;;0.30;0.20;;;;;;;13.75;100.00;98259.13;4992507;28;20537;-48
2023/10/19 07:58:00;;;;;;;0.30;0.20;;;;;;;13.77;100.00;98271.38;4992817;28;20450;-49
2023/10/19 08:00:29;;;;;;;0.30;0.20;;;;;;;13.88;100.00;98255.41;4974514;28;20481;-48
2023/10/19 08:02:55;;;;;;;0.30;0.20;;;;;;;13.85;100.00;98253.00;4994738;28;20920;-48
2023/10/19 08:05:22;;;;;;;0.30;0.20;;;;;;;13.89;100.00;98273.16;4989338;28;20453;-49
2023/10/19 08:07:49;;;;;;;0.30;0.20;;;;;;;13.99;100.00;98272.47;4996444;28;20539;-49
2023/10/19 08:10:17;;;;;;;0.30;0.20;;;;;;;14.06;100.00;98274.53;4996302;28;20453;-49
2023/10/19 08:12:47;;;;;;;0.30;0.20;;;;;;;13.94;100.00;98270.97;4996036;28;20473;-48
2023/10/19 08:15:15;;;;;;;0.40;0.30;;;;;;;14.28;100.00;98272.94;4983575;28;20528;-48
2023/10/19 08:17:44;;;;;;;1.47;1.37;;;;;;;14.43;100.00;98255.72;4996414;28;20529;-49
2023/10/19 08:20:27;;;;;;;0.30;0.20;;;;;;;14.25;100.00;98257.97;4996067;28;20521;-48
2023/10/19 08:22:56;;;;;;;0.30;0.20;;;;;;;14.29;100.00;98255.94;4995950;28;20884;-48
2023/10/19 08:25:27;;;;;;;0.40;0.40;;;;;;;14.34;100.00;98251.94;4996062;28;20445;-48
2023/10/19 08:27:56;;;;;;;0.30;0.20;;;;;;;14.36;100.00;98247.31;4996458;28;20496;-48
2023/10/19 08:30:23;;;;;;;0.30;0.20;;;;;;;14.41;100.00;98241.63;4995946;28;20954;-48
2023/10/19 08:32:54;;;;;;;0.30;0.20;;;;;;;14.76;100.00;98233.56;4995892;28;20894;-48
2023/10/19 08:35:24;;;;;;;0.30;0.20;;;;;;;14.71;100.00;98227.72;4995990;28;20965;-48
2023/10/19 08:37:59;;;;;;;0.30;0.20;;;;;;;14.74;100.00;98227.47;4995672;28;20951;-48
2023/10/19 08:40:29;;;;;;;0.30;0.20;;;;;;;14.73;100.00;98228.44;4995630;28;20864;-48
2023/10/19 08:42:55;;;;;;;0.40;0.40;;;;;;;14.87;100.00;98243.41;4995903;28;20539;-48
2023/10/19 08:45:22;;;;;;;0.30;0.20;;;;;;;14.90;100.00;98241.34;4995679;28;20823;-48
2023/10/19 08:47:59;;;;;;;0.30;0.20;;;;;;;15.01;100.00;98244.03;4995442;28;20528;-50
2023/10/19 08:50:28;;;;;;;0.40;0.20;;;;;;;15.35;100.00;98234.16;4995642;28;20460;-48
2023/10/19 08:53:01;;;;;;;2.20;2.10;;;;;;;15.47;100.00;98231.41;4995523;28;20479;-48
2023/10/19 08:55:30;;;;;;;0.30;0.20;;;;;;;15.43;100.00;98235.34;4995860;28;20515;-48
2023/10/19 08:58:16;;;;;;;0.30;0.20;;;;;;;15.38;100.00;98227.69;4994759;28;20927;-49
2023/10/19 09:00:48;;;;;;;0.40;0.20;;;;;;;15.85;100.00;98228.31;4995395;28;20450;-49
2023/10/19 09:03:16;;;;;;;0.30;0.20;;;;;;;15.76;100.00;98216.53;4995220;28;20478;-49
2023/10/19 09:05:47;;;;;;;0.30;0.20;;;;;;;15.30;100.00;98217.59;4988760;28;20536;-48
2023/10/19 09:08:19;;;;;;;0.40;0.20;;;;;;;15.42;100.00;98207.72;4995379;28;20493;-48
2023/10/19 09:10:47;;;;;;;0.30;0.20;;;;;;;15.37;100.00;98215.28;4995281;28;21012;-48
2023/10/19 09:13:18;;;;;;;0.30;0.20;;;;;;;15.25;100.00;98211.75;4995137;28;20448;-49
2023/10/19 09:15:45;;;;;;;0.30;0.20;;;;;;;15.60;100.00;98198.19;4995429;28;20462;-48
2023/10/19 09:18:20;;;;;;;0.30;0.20;;;;;;;15.84;100.00;98183.72;4995248;28;20416;-49
2023/10/19 09:20:55;;;;;;;0.53;0.53;;;;;;;15.76;100.00;98181.72;4995228;28;20451;-48
2023/10/19 09:23:23;;;;;;;0.30;0.20;;;;;;;15.96;100.00;98180.03;4995107;28;20480;-49
2023/10/19 09:25:52;;;;;;;1.67;1.67;;;;;;;16.17;100.00;98177.34;4995009;28;20453;-49
2023/10/19 09:28:20;;;;;;;0.40;0.20;;;;;;;16.30;100.00;98178.84;4994995;28;21028;-48
2023/10/19 09:30:47;;;;;;;0.30;0.20;;;;;;;16.37;100.00;98178.31;4994966;28;20449;-49
2023/10/19 09:33:17;;;;;;;0.30;0.20;;;;;;;16.49;100.00;98178.13;4994859;28;20469;-49
2023/10/19 09:35:53;;;;;;;0.40;0.20;;;;;;;16.49;100.00;98179.94;4981921;28;20460;-49
2023/10/19 09:38:21;;;;;;;0.40;0.20;;;;;;;16.44;100.00;98182.16;4994759;28;20445;-49
2023/10/19 09:40:54;;;;;;;0.40;0.20;;;;;;;16.51;100.00;98194.91;4994569;28;20942;-49
2023/10/19 09:43:34;;;;;;;1.13;1.13;;;;;;;16.71;100.00;98187.00;4995355;28;20452;-52
2023/10/19 09:46:07;;;;;;;0.30;0.20;;;;;;;17.04;100.00;98188.56;4994779;28;20460;-52
2023/10/19 09:48:41;;;;;;;0.30;0.20;;;;;;;17.02;100.00;98191.38;4994407;28;20540;-52
2023/10/19 09:51:09;;;;;;;0.40;0.20;;;;;;;17.41;100.00;98189.66;4994714;28;20470;-51
2023/10/19 09:53:47;;;;;;;0.30;0.20;;;;;;;17.44;100.00;98185.84;4994661;28;20560;-52
2023/10/19 09:56:36;;;;;;;0.93;0.93;;;;;;;17.47;100.00;98180.19;4994590;28;20455;-52
2023/10/19 09:59:07;;;;;;;0.40;0.20;;;;;;;17.54;100.00;98183.16;4994058;28;20442;-52
2023/10/19 10:02:10;;;;;;;0.30;0.20;;;;;;;16.95;100.00;98195.56;4994599;28;20533;-51
2023/10/19 10:04:37;;;;;;;0.33;0.20;;;;;;;16.86;100.00;98199.09;4987913;28;21007;-51
2023/10/19 10:07:09;;;;;;;0.30;0.20;;;;;;;16.99;100.00;98188.94;4993758;28;20466;-51
2023/10/19 10:09:43;;;;;;;0.40;0.20;;;;;;;17.30;100.00;98191.59;4993904;28;20803;-52
2023/10/19 10:12:20;;;;;;;0.40;0.20;;;;;;;17.22;100.00;98188.75;4994229;28;20468;-52
2023/10/19 10:15:08;;;;;;;0.40;0.20;;;;;;;16.90;100.00;98191.63;4994087;28;20449;-52
2023/10/19 10:17:39;;;;;;;0.40;0.20;;;;;;;17.02;100.00;98188.69;4994110;28;20448;-51
2023/10/19 10:20:13;;;;;;;0.40;0.20;;;;;;;17.09;100.00;98188.97;4980946;28;20504;-51
2023/10/19 10:22:43;;;;;;;0.30;0.20;;;;;;;16.96;100.00;98180.31;4993957;28;20465;-51
2023/10/19 10:25:29;;;;;;;0.60;0.60;;;;;;;16.81;100.00;98179.84;4993532;28;20457;-51
2023/10/19 10:27:56;;;;;;;0.33;0.20;;;;;;;17.03;100.00;98178.81;4993813;28;20980;-51
2023/10/19 10:30:22;;;;;;;0.30;0.20;;;;;;;16.82;100.00;98176.16;4993769;28;20453;-51
2023/10/19 10:32:55;;;;;;;0.40;0.20;;;;;;;17.01;100.00;98172.72;4976546;28;20482;-51
2023/10/19 10:35:40;;;;;;;0.40;0.20;;;;;;;16.94;100.00;98171.56;4993153;28;20451;-51
2023/10/19 10:38:09;;;;;;;0.40;0.20;;;;;;;16.91;100.00;98164.63;4982013;28;20472;-51
2023/10/19 10:40:47;;;;;;;0.40;0.40;;;;;;;17.05;100.00;98166.94;4993481;28;20868;-51
2023/10/19 10:43:15;;;;;;;0.40;0.20;;;;;;;17.08;100.00;98168.50;4993470;28;20455;-51
2023/10/19 10:45:42;;;;;;;0.40;0.30;;;;;;;17.48;100.00;98168.44;4993426;28;20519;-51
2023/10/19 10:48:17;;;;;;;0.37;0.20;;;;;;;17.29;100.00;98161.22;4993627;28;20495;-51
2023/10/19 10:50:45;;;;;;;0.40;0.20;;;;;;;17.28;100.00;98166.72;4993389;28;20507;-51
2023/10/19 10:53:13;;;;;;;0.40;0.20;;;;;;;17.34;100.00;98172.38;4993368;28;20473;-51
2023/10/19 10:55:40;;;;;;;0.40;0.20;;;;;;;17.77;100.00;98165.81;4993490;28;20446;-51
2023/10/19 10:58:08;;;;;;;0.40;0.30;;;;;;;17.64;100.00;98159.81;4993551;28;20481;-51
2023/10/19 11:00:42;;;;;;;0.40;0.20;;;;;;;17.58;100.00;98163.94;4992815;28;20424;-52
2023/10/19 11:03:09;;;;;;;0.40;0.20;;;;;;;17.97;100.00;98158.59;4993258;28;20473;-51
2023/10/19 11:05:37;;;;;;;0.40;0.20;;;;;;;17.95;100.00;98161.41;4986204;28;20449;-52
2023/10/19 11:08:03;;;;;;;0.40;0.20;;;;;;;17.96;100.00;98157.75;4993315;28;20495;-52
2023/10/19 11:10:31;;;;;;;0.40;0.20;;;;;;;17.97;100.00;98154.06;4993248;28;20540;-51
2023/10/19 11:13:07;;;;;;;0.57;0.57;;;;;;;18.08;99.99;98138.75;4993105;28;20481;-52
2023/10/19 11:15:36;;;;;;;0.40;0.20;;;;;;;17.80;100.00;98140.47;4993186;28;20528;-51
2023/10/19 11:18:04;;;;;;;4.00;3.80;;;;;;;18.22;98.70;98144.53;4993046;28;20887;-51
2023/10/19 11:20:30;;;;;;;0.40;0.20;;;;;;;18.03;98.99;98137.34;4993383;28;20828;-51
2023/10/19 11:23:00;;;;;;;0.40;0.20;;;;;;;17.84;99.49;98140.06;4993071;28;20556;-52
2023/10/19 11:25:28;;;;;;;0.40;0.20;;;;;;;18.03;99.20;98137.34;4993140;28;20482;-52
2023/10/19 11:27:59;;;;;;;0.40;0.20;;;;;;;18.20;98.68;98142.97;4992945;28;20599;-52
2023/10/19 11:30:29;;;;;;;0.40;0.20;;;;;;;18.06;100.00;98138.91;4993165;28;20853;-52
2023/10/19 11:33:00;;;;;;;0.40;0.20;;;;;;;18.11;99.25;98133.09;4992726;28;20549;-52
2023/10/19 11:35:31;;;;;;;0.40;0.20;;;;;;;18.35;98.31;98126.22;4992703;28;20508;-52
2023/10/19 11:38:00;;;;;;;0.40;0.20;;;;;;;17.88;99.63;98128.03;4992060;28;20819;-52
2023/10/19 11:40:27;;;;;;;0.40;0.30;;;;;;;18.04;99.57;98127.44;4992772;28;20449;-50
2023/10/19 11:42:58;;;;;;;0.40;0.20;;;;;;;18.19;99.01;98125.16;4992498;28;20483;-51
2023/10/19 11:45:25;;;;;;;1.90;1.80;;;;;;;18.07;99.38;98113.72;4992572;28;20456;-50
2023/10/19 11:47:53;;;;;;;0.97;0.77;;;;;;;17.99;99.29;98117.13;4992826;28;20468;-52
2023/10/19 11:50:19;;;;;;;0.40;0.20;;;;;;;18.19;99.17;98103.63;4992807;28;20447;-51
2023/10/19 11:52:46;;;;;;;0.40;0.20;;;;;;;18.18;99.02;98100.09;4992736;28;20473;-52
2023/10/19 11:55:14;;;;;;;0.87;0.87;;;;;;;18.11;100.00;98107.06;4992512;28;20485;-52
2023/10/19 11:57:43;;;;;;;1.90;1.80;;;;;;;17.92;100.00;98107.09;4992563;28;20427;-51
2023/10/19 12:00:23;;;;;;;0.40;0.30;;;;;;;17.87;100.00;98104.84;4992259;28;20485;-52
2023/10/19 12:02:51;;;;;;;0.40;0.20;;;;;;;17.84;100.00;98105.13;4992664;28;20557;-51
2023/10/19 12:05:18;;;;;;;1.80;1.80;;;;;;;17.78;100.00;98105.69;4985733;28;20939;-51
2023/10/19 12:07:45;;;;;;;0.40;0.30;;;;;;;17.65;100.00;98107.78;4992640;28;20449;-52
2023/10/19 12:10:15;;;;;;;0.40;0.20;;;;;;;17.70;100.00;98113.63;4992320;28;20461;-52
2023/10/19 12:12:41;;;;;;;0.40;0.20;;;;;;;17.72;100.00;98109.81;4993029;28;20556;-51
2023/10/19 12:15:26;;;;;;;0.40;0.20;;;;;;;17.47;100.00;98105.81;4993072;28;20479;-52
2023/10/19 12:17:54;;;;;;;0.40;0.30;;;;;;;17.59;100.00;98116.41;4992595;28;20453;-52